KRBL

Details ICAO KRBL
Name Red Bluff Muni
Region United States
Timezone America/Los_Angeles (UTC-7.0)
Plans Departing 5
Arriving 13
Stats Elevation 349 ft / 106 m (AMSL)
Location 40.150679° -122.252298°
Runways 1
Magnetic Variation 13.954° E
Sunrise 2018-05-24 12:47:33 UTC / 2018-05-24 05:47:33 Local
Sunset 2018-05-25 03:27:05 UTC / 2018-05-24 20:27:05 Local
Advertisement - Login to hide

Runways

ID Width Length Bearing (true) Bearing (mag) Surface Threshold Offset Overrun Length
15 100 ft / 30 m 5,710 ft / 1,740 m 168.15° 154.20° Asphalt 0 ft / 0 m 0 ft / 0 m
33 100 ft / 30 m 5,710 ft / 1,740 m 348.15° 334.20° Asphalt 0 ft / 0 m 0 ft / 0 m

Map

Weather


0- 5 10 15 20 25 30 35+ Temperature / ° C

Clouds and Precipitation
Forecast for 2018-05-24 18:00 UTC. Updated an hour ago

Ground ~20,000 ft ~40,000 ft Winds

METAR

KRBL 241754Z AUTO VRB04KT 10SM CLR 23/11 A2998 RMK AO2 SLP150 T02280111 10228 20117 58005

TAF

KRBL 241727Z 2418/2518 16005KT P6SM SCT250 FM250300 17007KT P6SM BKN100 FM251200 16008KT P6SM VCSH OVC050

Frequencies

Recorded 120.77 MHz ASOS
Unicom 123.00 MHz CTAF/UNICOM
Warning: Do not use this data for real-world aviation or navigation. No guarantee of current accuracy is given.